Time;durP1;ratioP1;P1;durP2;ratioP2;P2;SDS_P1;SDS_P2;PMS_P1;PMS_P2;Temp;Humidity;BMP_temperature;BMP_pressure;BME280_temperature;BME280_humidity;BME280_pressure;Samples;Min_cycle;Max_cycle;Signal;HPM_P1;HPM_P2
2022/07/19 00:00:07;;;;;;;11.98;5.82;;;19.40;99.90;;;;;;6136077;23;20067;-74
2022/07/19 00:02:33;;;;;;;9.73;5.57;;;19.30;99.90;;;;;;6160799;23;20017;-73
2022/07/19 00:04:59;;;;;;;11.02;5.90;;;19.40;99.90;;;;;;6135396;23;20482;-73
2022/07/19 00:07:27;;;;;;;12.10;6.00;;;19.40;99.90;;;;;;6134713;23;20017;-74
2022/07/19 00:09:53;;;;;;;12.63;5.88;;;19.40;99.90;;;;;;6136498;23;20013;-73
2022/07/19 00:12:19;;;;;;;8.70;5.45;;;19.40;99.90;;;;;;6160117;23;20055;-74
2022/07/19 00:14:47;;;;;;;12.13;5.63;;;19.40;99.90;;;;;;6111285;23;20021;-73
2022/07/19 00:17:15;;;;;;;10.48;5.55;;;19.40;99.90;;;;;;6111329;23;20024;-74
2022/07/19 00:19:43;;;;;;;12.65;5.82;;;19.30;99.90;;;;;;6136128;23;20537;-74
2022/07/19 00:22:14;;;;;;;8.38;5.63;;;19.30;99.90;;;;;;6157577;23;20063;-75
2022/07/19 00:24:50;;;;;;;12.20;6.05;;;19.30;99.90;;;;;;6134215;23;20467;-74
2022/07/19 00:27:16;;;;;;;14.52;5.57;;;19.30;99.90;;;;;;6111350;23;20013;-74
2022/07/19 00:29:44;;;;;;;9.05;5.28;;;19.40;99.90;;;;;;6159718;23;20084;-73
2022/07/19 00:32:13;;;;;;;8.82;5.40;;;19.30;99.90;;;;;;6160531;23;20440;-74
2022/07/19 00:34:38;;;;;;;11.10;5.55;;;19.30;99.90;;;;;;6135528;23;20076;-73
2022/07/19 00:37:07;;;;;;;23.80;6.43;;;19.30;99.90;;;;;;6135814;23;20043;-74
2022/07/19 00:39:33;;;;;;;13.15;5.32;;;19.30;99.90;;;;;;6159969;23;20021;-74
2022/07/19 00:42:02;;;;;;;10.50;5.70;;;19.30;99.90;;;;;;6160295;23;20025;-74
2022/07/19 00:44:30;;;;;;;11.48;5.40;;;19.30;99.90;;;;;;6159750;23;20017;-74
2022/07/19 00:46:58;;;;;;;9.55;5.43;;;19.30;99.90;;;;;;6160452;23;20021;-73
2022/07/19 00:49:24;;;;;;;11.63;5.60;;;19.30;99.90;;;;;;6160477;23;20079;-74
2022/07/19 00:51:54;;;;;;;13.73;6.07;;;19.30;99.90;;;;;;6135008;23;20021;-74
2022/07/19 00:54:21;;;;;;;13.57;5.68;;;19.30;99.90;;;;;;6135538;23;20104;-74
2022/07/19 00:56:53;;;;;;;9.23;5.57;;;19.30;99.90;;;;;;6159246;23;20032;-74
2022/07/19 00:59:19;;;;;;;16.05;5.18;;;19.30;99.90;;;;;;6135455;23;20024;-74
2022/07/19 01:01:45;;;;;;;12.35;6.07;;;19.20;99.90;;;;;;6135605;23;20021;-73
2022/07/19 01:04:14;;;;;;;;;;;19.20;99.90;;;;;;6186592;23;20104;-73
2022/07/19 01:06:41;;;;;;;16.50;6.20;;;19.20;99.90;;;;;;6159800;23;19917;-74
2022/07/19 01:09:07;;;;;;;9.80;5.13;;;19.10;99.90;;;;;;6185171;23;20202;-73
2022/07/19 01:11:36;;;;;;;11.20;5.70;;;19.10;99.90;;;;;;6159363;23;20108;-73
2022/07/19 01:14:02;;;;;;;17.92;5.82;;;19.10;99.90;;;;;;6158777;23;20048;-74
2022/07/19 01:16:31;;;;;;;10.10;5.72;;;19.10;99.90;;;;;;6134699;23;20044;-74
2022/07/19 01:18:59;;;;;;;8.07;4.95;;;19.10;99.90;;;;;;6135288;23;20021;-74
2022/07/19 01:21:26;;;;;;;13.90;6.07;;;19.10;99.90;;;;;;6159759;23;20470;-74
2022/07/19 01:23:57;;;;;;;9.23;5.53;;;19.20;99.90;;;;;;6159631;23;20017;-73
2022/07/19 01:26:25;;;;;;;9.38;5.10;;;19.10;99.90;;;;;;6159733;23;20048;-75
2022/07/19 01:28:51;;;;;;;9.77;5.15;;;19.00;99.90;;;;;;6158582;23;20515;-75
2022/07/19 01:31:16;;;;;;;9.15;5.70;;;19.00;99.90;;;;;;6159927;23;20059;-74
2022/07/19 01:33:46;;;;;;;10.27;5.72;;;18.90;99.90;;;;;;6159575;23;20021;-74
2022/07/19 01:36:12;;;;;;;13.05;5.72;;;18.80;99.90;;;;;;6159239;23;20057;-73
2022/07/19 01:38:39;;;;;;;10.43;5.53;;;18.80;99.90;;;;;;6109244;23;20104;-72
2022/07/19 01:41:06;;;;;;;10.93;5.32;;;18.70;99.90;;;;;;6133730;23;20021;-73
2022/07/19 01:43:34;;;;;;;11.65;5.38;;;18.60;99.90;;;;;;6134590;23;20030;-73
2022/07/19 01:46:02;;;;;;;14.70;5.28;;;18.60;99.90;;;;;;6133307;23;20052;-74
2022/07/19 01:48:28;;;;;;;10.45;5.43;;;18.60;99.90;;;;;;6159256;23;20025;-74
2022/07/19 01:50:54;;;;;;;10.77;5.47;;;18.60;99.90;;;;;;6159543;23;20428;-74
2022/07/19 01:53:20;;;;;;;17.85;5.32;;;18.60;99.90;;;;;;6159463;23;20024;-73
2022/07/19 01:55:49;;;;;;;9.50;5.50;;;18.60;99.90;;;;;;6158573;23;20009;-74
2022/07/19 01:58:17;;;;;;;9.65;5.00;;;18.60;99.90;;;;;;6185338;23;20021;-74
2022/07/19 02:00:43;;;;;;;11.32;5.22;;;18.70;99.90;;;;;;6134989;23;20025;-74
2022/07/19 02:03:11;;;;;;;9.13;4.90;;;18.70;99.90;;;;;;6135448;23;20017;-74
2022/07/19 02:05:37;;;;;;;8.15;4.80;;;18.90;99.90;;;;;;6134859;23;20341;-74
2022/07/19 02:08:05;;;;;;;8.05;4.40;;;18.90;99.90;;;;;;6134602;23;20058;-72
2022/07/19 02:10:31;;;;;;;11.45;4.72;;;18.90;99.90;;;;;;6110465;23;20017;-74
2022/07/19 02:13:07;;;;;;;8.32;4.75;;;18.90;99.90;;;;;;6134819;23;20096;-73
2022/07/19 02:15:39;;;;;;;11.23;4.88;;;18.90;99.90;;;;;;6135960;23;20028;-74
2022/07/19 02:18:05;;;;;;;6.93;4.43;;;18.90;99.90;;;;;;6159752;23;20017;-74
2022/07/19 02:20:36;;;;;;;9.77;4.70;;;18.90;99.90;;;;;;6158363;23;20387;-74
2022/07/19 02:23:05;;;;;;;6.78;4.55;;;18.80;99.90;;;;;;6135049;23;20041;-73
2022/07/19 02:25:36;;;;;;;10.00;5.03;;;18.90;99.90;;;;;;6158962;23;20017;-75
2022/07/19 02:28:02;;;;;;;8.35;5.20;;;18.90;99.90;;;;;;6159536;23;20086;-73
2022/07/19 02:30:28;;;;;;;10.15;4.50;;;18.80;99.90;;;;;;6134994;23;20456;-74
2022/07/19 02:32:59;;;;;;;7.10;4.75;;;18.80;99.90;;;;;;6159444;23;20049;-73
2022/07/19 02:35:25;;;;;;;7.78;4.60;;;18.90;99.90;;;;;;6134823;23;20084;-73
2022/07/19 02:37:51;;;;;;;18.73;5.13;;;18.90;99.90;;;;;;6159476;23;20421;-74
2022/07/19 02:40:20;;;;;;;10.00;4.97;;;18.90;99.90;;;;;;6158309;23;20412;-73
2022/07/19 02:42:48;;;;;;;13.15;5.35;;;18.80;99.90;;;;;;6135463;23;20439;-76
2022/07/19 02:45:14;;;;;;;17.05;5.40;;;18.80;99.90;;;;;;6159118;23;20073;-74
2022/07/19 02:47:39;;;;;;;10.80;4.82;;;18.80;99.90;;;;;;6134070;23;20013;-74
2022/07/19 02:50:06;;;;;;;9.55;5.30;;;18.90;99.90;;;;;;6158227;23;20016;-73
2022/07/19 02:52:31;;;;;;;9.02;5.57;;;18.80;99.90;;;;;;6134706;23;20144;-74
2022/07/19 02:54:57;;;;;;;8.75;5.45;;;18.80;99.90;;;;;;6160679;23;20013;-74
2022/07/19 02:57:23;;;;;;;12.02;5.55;;;18.70;99.90;;;;;;6161477;23;20055;-74
2022/07/19 02:59:49;;;;;;;25.35;6.68;;;18.70;99.90;;;;;;6136872;23;20021;-73
2022/07/19 03:02:14;;;;;;;7.78;4.88;;;18.80;99.90;;;;;;6111635;23;20049;-74
2022/07/19 03:04:40;;;;;;;9.88;5.75;;;18.70;99.90;;;;;;6160823;23;20470;-73
2022/07/19 03:07:08;;;;;;;12.20;6.05;;;18.70;99.90;;;;;;6161940;23;20071;-73
2022/07/19 03:09:34;;;;;;;8.15;5.18;;;18.70;99.90;;;;;;6136636;23;20012;-73
2022/07/19 03:12:00;;;;;;;14.75;5.90;;;18.80;99.90;;;;;;6136445;23;20092;-74
2022/07/19 03:14:28;;;;;;;8.95;5.47;;;18.80;99.90;;;;;;6160884;23;20336;-74
2022/07/19 03:16:54;;;;;;;12.70;5.82;;;18.70;99.90;;;;;;6136469;23;20092;-74
2022/07/19 03:19:19;;;;;;;10.48;5.75;;;18.70;99.80;;;;;;6136806;23;20052;-72
2022/07/19 03:21:45;;;;;;;9.68;5.20;;;18.70;99.80;;;;;;6136526;23;20021;-73
2022/07/19 03:24:11;;;;;;;9.52;5.32;;;18.70;99.80;;;;;;6161306;23;20017;-73
2022/07/19 03:26:37;;;;;;;12.43;5.25;;;18.70;99.70;;;;;;6136331;23;20017;-72
2022/07/19 03:29:08;;;;;;;11.05;5.70;;;18.60;99.80;;;;;;6136382;23;20028;-73
2022/07/19 03:31:36;;;;;;;10.25;6.10;;;18.60;99.90;;;;;;6160551;23;20013;-73
2022/07/19 03:34:01;;;;;;;8.55;6.13;;;18.50;99.80;;;;;;6160592;23;20466;-73
2022/07/19 03:36:27;;;;;;;10.77;5.32;;;18.50;99.90;;;;;;6136608;23;20025;-74
2022/07/19 03:38:56;;;;;;;10.25;5.75;;;18.40;99.90;;;;;;6137108;23;20017;-74
2022/07/19 03:41:22;;;;;;;8.38;5.85;;;18.40;99.90;;;;;;6160667;23;20017;-75
2022/07/19 03:43:50;;;;;;;11.85;6.25;;;18.30;99.90;;;;;;6089673;23;20021;-73
2022/07/19 03:46:16;;;;;;;8.07;5.57;;;18.30;99.90;;;;;;6136255;23;20025;-75
2022/07/19 03:48:42;;;;;;;10.98;5.50;;;18.30;99.90;;;;;;6136382;23;20340;-74
2022/07/19 03:51:08;;;;;;;10.25;5.80;;;18.30;99.90;;;;;;6135990;23;20096;-74
2022/07/19 03:53:34;;;;;;;9.80;5.30;;;18.40;99.90;;;;;;6135998;23;20021;-72
2022/07/19 03:56:00;;;;;;;11.27;6.00;;;18.40;99.90;;;;;;6160868;23;20092;-73
2022/07/19 03:58:26;;;;;;;10.82;5.90;;;18.30;99.90;;;;;;6136368;23;20368;-73
2022/07/19 04:00:53;;;;;;;8.18;5.78;;;18.40;99.90;;;;;;6160919;23;20028;-73
2022/07/19 04:03:18;;;;;;;14.55;6.32;;;18.40;99.90;;;;;;6159977;23;20095;-73
2022/07/19 04:05:44;;;;;;;9.15;6.07;;;18.50;99.90;;;;;;6186530;23;20441;-74
2022/07/19 04:08:12;;;;;;;15.80;5.90;;;18.60;99.90;;;;;;6160763;23;20017;-74
2022/07/19 04:10:38;;;;;;;12.40;6.38;;;18.60;99.90;;;;;;6160713;23;20391;-73
2022/07/19 04:13:04;;;;;;;14.60;6.13;;;18.60;99.90;;;;;;6160339;23;20092;-73
2022/07/19 04:15:36;;;;;;;13.57;6.90;;;18.60;99.90;;;;;;6135616;23;20020;-74
2022/07/19 04:18:04;;;;;;;11.73;6.32;;;18.70;99.90;;;;;;6135958;23;20056;-72
2022/07/19 04:20:30;;;;;;;12.20;6.15;;;18.80;99.90;;;;;;6112211;23;20028;-74
2022/07/19 04:23:08;;;;;;;13.77;6.13;;;18.80;99.90;;;;;;6186560;23;20021;-73
2022/07/19 04:25:41;;;;;;;12.70;5.90;;;18.90;99.90;;;;;;6160490;23;20017;-74
2022/07/19 04:28:07;;;;;;;13.25;6.18;;;18.80;99.80;;;;;;6135958;23;20021;-76
2022/07/19 04:30:33;;;;;;;12.30;7.03;;;18.80;99.90;;;;;;6135351;23;20072;-77
2022/07/19 04:33:02;;;;;;;12.00;6.05;;;18.90;99.70;;;;;;6111380;23;20021;-75
2022/07/19 04:35:31;;;;;;;11.13;5.93;;;18.90;99.40;;;;;;6136293;23;20021;-73
2022/07/19 04:37:56;;;;;;;9.75;6.28;;;19.10;99.20;;;;;;6136079;23;20025;-72
2022/07/19 04:40:22;;;;;;;18.73;7.00;;;19.20;99.30;;;;;;6155399;23;20092;-71
2022/07/19 04:42:48;;;;;;;11.88;6.95;;;19.20;99.20;;;;;;6156906;23;20028;-72
2022/07/19 04:45:13;;;;;;;15.10;6.78;;;19.20;99.40;;;;;;6155415;23;20029;-71
2022/07/19 04:47:39;;;;;;;14.50;6.07;;;19.20;99.40;;;;;;6154958;23;20021;-72
2022/07/19 04:50:05;;;;;;;16.42;7.07;;;19.20;99.50;;;;;;6155055;23;20506;-71
2022/07/19 04:52:31;;;;;;;16.23;7.15;;;19.30;99.10;;;;;;6130475;23;20022;-72
2022/07/19 04:54:57;;;;;;;13.88;6.53;;;19.30;99.20;;;;;;6156748;23;20373;-72
2022/07/19 04:57:22;;;;;;;14.20;6.95;;;19.30;98.90;;;;;;6130589;23;20026;-72
2022/07/19 04:59:48;;;;;;;13.98;6.88;;;19.40;99.10;;;;;;6155167;23;20057;-72
2022/07/19 05:02:14;;;;;;;16.73;7.05;;;19.40;99.10;;;;;;6155208;23;20016;-71
2022/07/19 05:04:39;;;;;;;17.27;7.72;;;19.40;99.40;;;;;;6155584;23;20465;-71
2022/07/19 05:07:05;;;;;;;17.20;7.13;;;19.40;99.50;;;;;;6155399;23;20100;-71
2022/07/19 05:09:31;;;;;;;14.35;6.65;;;19.40;99.40;;;;;;6156815;23;20080;-71
2022/07/19 05:11:57;;;;;;;13.43;6.93;;;19.40;99.50;;;;;;6154956;23;20024;-71
2022/07/19 05:14:23;;;;;;;19.77;6.55;;;19.50;99.30;;;;;;6155169;23;20045;-72
2022/07/19 05:16:49;;;;;;;15.25;6.32;;;19.60;99.40;;;;;;6155073;23;20440;-71
2022/07/19 05:19:15;;;;;;;;;;;19.70;99.30;;;;;;6155699;23;20013;-72
2022/07/19 05:21:41;;;;;;;13.05;6.53;;;19.70;99.30;;;;;;6130497;23;19916;-72
2022/07/19 05:24:07;;;;;;;12.85;6.65;;;19.80;99.10;;;;;;6154811;23;20200;-70
2022/07/19 05:26:35;;;;;;;15.90;6.50;;;19.90;99.10;;;;;;6155076;23;20013;-72
2022/07/19 05:29:02;;;;;;;19.20;6.57;;;20.00;99.40;;;;;;6155065;23;20022;-71
2022/07/19 05:31:29;;;;;;;16.67;6.95;;;20.00;98.70;;;;;;6154944;23;20349;-70
2022/07/19 05:33:55;;;;;;;22.52;6.57;;;20.10;98.50;;;;;;6105770;23;20022;-72
2022/07/19 05:36:20;;;;;;;22.42;6.60;;;20.20;98.40;;;;;;6154717;23;20068;-71
2022/07/19 05:38:46;;;;;;;15.88;6.32;;;20.30;97.80;;;;;;6155084;23;20028;-71
2022/07/19 05:41:12;;;;;;;18.05;7.22;;;20.40;97.90;;;;;;6159382;23;20448;-71
2022/07/19 05:43:39;;;;;;;15.55;6.22;;;20.60;97.50;;;;;;6159692;23;20448;-72
2022/07/19 05:46:05;;;;;;;13.38;6.50;;;20.70;97.30;;;;;;6186074;23;20017;-72
2022/07/19 05:48:31;;;;;;;20.50;6.47;;;20.90;97.00;;;;;;6110793;23;20017;-71
2022/07/19 05:50:58;;;;;;;19.35;6.43;;;21.00;96.70;;;;;;6159494;23;20014;-71
2022/07/19 05:53:25;;;;;;;22.92;6.63;;;21.20;97.10;;;;;;6185950;23;20017;-72
2022/07/19 05:55:50;;;;;;;22.85;7.25;;;21.20;97.20;;;;;;6135407;23;20356;-72
2022/07/19 05:58:17;;;;;;;28.17;6.88;;;21.40;97.40;;;;;;6159668;23;20017;-71
2022/07/19 06:01:17;;;;;;;20.58;6.85;;;21.60;96.20;;;;;;6135097;23;20099;-72
2022/07/19 06:03:30;;;;;;;14.88;7.45;;;21.70;96.30;;;;;;6159391;23;20017;-71
2022/07/19 06:05:56;;;;;;;18.15;6.75;;;21.80;94.80;;;;;;6185974;23;20335;-71
2022/07/19 06:08:22;;;;;;;22.70;6.93;;;21.90;94.90;;;;;;6159671;23;20372;-71
2022/07/19 06:10:48;;;;;;;17.90;6.32;;;22.10;94.90;;;;;;6159867;23;20095;-71
2022/07/19 06:13:14;;;;;;;18.15;6.20;;;22.20;94.70;;;;;;6159515;23;20075;-72
2022/07/19 06:15:41;;;;;;;20.35;6.10;;;22.30;94.10;;;;;;6159456;23;20452;-72
2022/07/19 06:18:07;;;;;;;21.50;6.63;;;22.40;94.40;;;;;;6159400;23;20021;-71
2022/07/19 06:20:35;;;;;;;22.00;6.57;;;22.50;94.40;;;;;;6159096;23;20013;-71
2022/07/19 06:23:01;;;;;;;17.92;5.70;;;22.60;93.90;;;;;;6134954;23;20383;-71
2022/07/19 06:25:27;;;;;;;18.50;6.30;;;22.80;94.20;;;;;;6159332;23;20048;-72
2022/07/19 06:27:52;;;;;;;;;;;22.80;93.90;;;;;;6160378;23;20013;-72
2022/07/19 06:30:18;;;;;;;13.23;6.20;;;23.00;94.80;;;;;;6135094;23;19968;-72
2022/07/19 06:32:44;;;;;;;18.98;6.32;;;23.10;94.10;;;;;;6134979;23;20325;-71
2022/07/19 06:35:12;;;;;;;12.10;6.20;;;23.40;94.40;;;;;;6134977;23;20048;-72
2022/07/19 06:37:37;;;;;;;15.93;5.82;;;23.60;94.00;;;;;;6159614;23;20017;-71
2022/07/19 06:40:04;;;;;;;15.60;5.78;;;23.80;94.00;;;;;;6154176;23;20056;-72
2022/07/19 06:42:32;;;;;;;10.75;5.13;;;23.90;93.70;;;;;;6154637;23;20377;-72
2022/07/19 06:45:01;;;;;;;16.85;5.82;;;24.00;93.40;;;;;;6155967;23;20206;-72
2022/07/19 06:47:28;;;;;;;14.23;5.60;;;24.10;92.10;;;;;;6156124;23;20024;-72
2022/07/19 06:49:54;;;;;;;15.65;5.57;;;24.40;93.00;;;;;;6156060;23;20024;-71
2022/07/19 06:52:19;;;;;;;;;;;24.40;92.00;;;;;;6130540;23;20093;-72
2022/07/19 06:54:45;;;;;;;14.15;5.53;;;24.50;91.30;;;;;;6154376;23;19920;-71
2022/07/19 06:57:11;;;;;;;;;;;24.50;91.20;;;;;;6156342;23;20017;-72
2022/07/19 08:09:07;;;;;;;8.90;3.20;;;28.00;82.40;;;;;;6176058;23;20088;-77
2022/07/19 08:12:01;;;;;;;6.80;3.20;;;28.10;81.00;;;;;;6135979;23;20324;-76
2022/07/19 08:14:48;;;;;;;;;;;28.30;82.60;;;;;;6117295;23;20016;-79
2022/07/19 08:17:22;;;;;;;8.65;3.85;;;28.40;81.80;;;;;;6136082;23;19912;-80
2022/07/19 08:20:04;;;;;;;7.20;3.10;;;28.60;82.10;;;;;;6136367;23;20017;-81
2022/07/19 08:22:33;;;;;;;10.77;3.25;;;28.80;79.10;;;;;;6160792;23;20023;-80
2022/07/19 08:25:02;;;;;;;8.30;3.53;;;28.80;79.80;;;;;;6136699;23;20013;-79
2022/07/19 08:27:34;;;;;;;6.70;3.55;;;28.90;78.70;;;;;;6136071;23;20009;-79
2022/07/19 08:30:06;;;;;;;10.57;3.22;;;28.90;77.10;;;;;;6136448;23;20516;-78
2022/07/19 08:33:27;;;;;;;8.52;3.05;;;28.80;79.70;;;;;;6135409;23;20017;-77
2022/07/19 08:36:30;;;;;;;5.15;2.50;;;29.00;79.20;;;;;;6119149;23;20013;-73
2022/07/19 08:38:56;;;;;;;5.38;2.70;;;29.30;78.60;;;;;;6116635;23;20020;-74
2022/07/19 08:42:05;;;;;;;6.18;2.80;;;29.50;77.00;;;;;;6160403;23;20024;-79
2022/07/19 08:44:35;;;;;;;9.25;2.33;;;29.60;76.70;;;;;;6160532;23;20017;-73
2022/07/19 08:47:22;;;;;;;9.15;2.88;;;29.80;75.70;;;;;;6135723;23;20059;-72
2022/07/19 08:49:54;;;;;;;14.10;3.00;;;29.90;76.00;;;;;;6141664;23;20024;-73
2022/07/19 08:52:36;;;;;;;10.48;3.00;;;29.70;74.60;;;;;;6158834;23;20327;-73
2022/07/19 08:55:28;;;;;;;6.25;2.55;;;29.90;76.80;;;;;;6135148;23;20116;-72
2022/07/19 08:58:01;;;;;;;5.30;2.38;;;30.10;74.20;;;;;;6159498;23;20009;-73
2022/07/19 09:01:10;;;;;;;8.07;1.95;;;30.30;74.10;;;;;;6072435;23;20006;-74
2022/07/19 09:08:08;;;;;;;3.40;1.92;;;30.80;71.60;;;;;;5937375;23;20094;-73
2022/07/19 09:11:23;;;;;;;9.27;2.13;;;30.80;69.70;;;;;;6037843;23;20026;-73
2022/07/19 09:17:20;;;;;;;15.25;1.92;;;31.40;69.10;;;;;;6094184;23;20526;-73
2022/07/19 09:20:31;;;;;;;8.52;1.88;;;30.90;66.10;;;;;;6037319;23;20216;-73
2022/07/19 09:23:40;;;;;;;6.55;1.92;;;31.10;66.70;;;;;;5990109;23;20026;-73
2022/07/19 09:31:04;;;;;;;;;;;;;;;;;;;;;
2022/07/19 09:33:52;;;;;;;15.73;2.10;;;31.50;64.50;;;;;;5847149;24;20038;-74
2022/07/19 09:36:29;;;;;;;8.70;1.83;;;31.60;65.40;;;;;;5952148;24;20048;-73
2022/07/19 09:42:39;;;;;;;6.85;1.65;;;31.70;60.50;;;;;;6023567;23;20026;-73
2022/07/19 09:46:20;;;;;;;6.10;1.65;;;31.80;60.30;;;;;;6066014;23;20019;-73
2022/07/19 09:48:43;;;;;;;4.13;1.90;;;32.00;61.50;;;;;;6054197;23;20014;-73
2022/07/19 09:51:24;;;;;;;18.05;3.05;;;31.70;60.20;;;;;;6094510;23;20354;-72
2022/07/19 09:54:02;;;;;;;5.22;1.65;;;31.60;59.70;;;;;;6105897;23;20013;-73
2022/07/19 09:56:45;;;;;;;8.63;1.77;;;31.60;60.30;;;;;;6156466;23;20009;-73
2022/07/19 09:59:21;;;;;;;7.88;2.40;;;31.90;60.30;;;;;;6085166;23;20071;-73
2022/07/19 10:01:55;;;;;;;8.25;1.90;;;32.00;60.00;;;;;;6129744;23;20092;-72
2022/07/19 10:04:35;;;;;;;6.22;1.88;;;32.10;62.30;;;;;;6154745;23;20444;-72
2022/07/19 10:07:15;;;;;;;15.13;1.90;;;32.30;57.90;;;;;;6154587;23;20432;-73
2022/07/19 10:09:47;;;;;;;7.47;1.98;;;32.30;58.30;;;;;;6094282;23;20429;-72
2022/07/19 10:12:13;;;;;;;12.73;1.90;;;31.90;57.60;;;;;;6130902;23;20372;-72
2022/07/19 10:15:11;;;;;;;16.20;1.48;;;32.20;59.30;;;;;;6154812;23;20013;-72
2022/07/19 10:25:17;;;;;;;12.73;1.73;;;32.70;57.00;;;;;;6065775;23;20070;-73
2022/07/19 10:35:23;;;;;;;11.45;1.73;;;32.60;54.40;;;;;;5925501;24;20472;-79
2022/07/19 10:37:51;;;;;;;5.75;1.45;;;32.80;55.80;;;;;;6050858;23;20014;-78
2022/07/19 10:40:43;;;;;;;11.50;1.80;;;32.90;55.70;;;;;;6154818;23;20494;-78
2022/07/19 10:43:15;;;;;;;6.05;1.40;;;32.90;55.00;;;;;;6154625;23;20063;-79
2022/07/19 10:46:01;;;;;;;7.80;1.60;;;32.90;53.70;;;;;;6154938;23;20017;-73
2022/07/19 10:48:59;;;;;;;4.57;1.48;;;33.00;53.90;;;;;;6140361;23;20020;-77
2022/07/19 10:51:33;;;;;;;2.58;1.40;;;33.10;54.10;;;;;;6090511;23;20021;-75
2022/07/19 10:54:05;;;;;;;7.15;1.70;;;33.20;53.60;;;;;;6154734;23;20013;-74
2022/07/19 10:56:36;;;;;;;4.95;1.65;;;33.20;53.30;;;;;;6154263;23;20013;-78
2022/07/19 10:59:12;;;;;;;10.60;2.28;;;33.30;53.70;;;;;;6154641;23;20009;-76
2022/07/19 11:01:54;;;;;;;4.35;2.03;;;33.20;52.10;;;;;;6130564;23;20384;-75
2022/07/19 11:04:34;;;;;;;9.20;1.60;;;33.10;52.20;;;;;;6130301;23;20018;-74
2022/07/19 11:07:21;;;;;;;8.23;1.65;;;32.90;51.80;;;;;;6154214;23;20440;-77
2022/07/19 11:09:58;;;;;;;6.20;1.40;;;33.30;55.40;;;;;;6134616;23;20319;-78
2022/07/19 11:12:28;;;;;;;7.63;1.90;;;33.30;52.10;;;;;;6185642;23;20088;-76
2022/07/19 11:14:55;;;;;;;5.28;1.48;;;33.40;52.10;;;;;;6161169;23;20040;-76
2022/07/19 11:17:21;;;;;;;3.00;1.42;;;33.40;51.20;;;;;;6161218;23;20013;-75
2022/07/19 11:19:58;;;;;;;5.00;1.63;;;33.20;49.50;;;;;;6161340;23;20020;-76
2022/07/19 11:22:23;;;;;;;7.22;1.80;;;33.30;50.30;;;;;;6161628;23;20017;-75
2022/07/19 11:24:49;;;;;;;10.88;1.80;;;33.70;50.50;;;;;;6161400;23;20083;-75
2022/07/19 11:27:16;;;;;;;4.25;1.25;;;34.00;52.30;;;;;;6160817;23;20100;-76
2022/07/19 11:30:05;;;;;;;3.15;1.40;;;34.10;49.10;;;;;;6161307;23;20016;-76
2022/07/19 11:32:31;;;;;;;7.55;1.55;;;34.20;51.00;;;;;;6160792;23;20012;-78
2022/07/19 11:34:58;;;;;;;9.00;1.50;;;34.20;50.30;;;;;;6135535;23;20017;-76
2022/07/19 11:37:27;;;;;;;5.45;1.80;;;34.10;49.10;;;;;;6161019;23;20013;-74
2022/07/19 11:39:53;;;;;;;8.82;1.58;;;34.20;49.00;;;;;;6112685;23;20157;-76
2022/07/19 11:42:39;;;;;;;4.03;1.52;;;34.20;49.50;;;;;;6160951;23;20027;-74
2022/07/19 11:45:21;;;;;;;6.47;1.60;;;34.50;48.90;;;;;;6134968;23;20013;-75
2022/07/19 11:47:56;;;;;;;5.35;1.67;;;34.40;49.20;;;;;;6160763;23;20020;-77
2022/07/19 11:50:26;;;;;;;4.15;1.63;;;34.20;48.10;;;;;;6160970;23;20009;-73
2022/07/19 11:52:59;;;;;;;4.68;1.60;;;34.20;48.30;;;;;;6161062;23;20009;-76
2022/07/19 11:55:35;;;;;;;6.72;1.52;;;34.40;50.70;;;;;;6136406;23;20420;-75
2022/07/19 11:58:07;;;;;;;3.78;1.30;;;34.10;47.30;;;;;;6136350;23;20088;-76
2022/07/19 12:00:33;;;;;;;7.72;1.48;;;34.20;47.40;;;;;;6161365;23;20013;-76
2022/07/19 12:03:06;;;;;;;3.60;1.40;;;34.40;47.10;;;;;;6160929;23;20013;-78
2022/07/19 12:05:36;;;;;;;8.60;1.52;;;34.60;50.30;;;;;;6136254;23;20148;-78
2022/07/19 12:08:07;;;;;;;5.07;1.33;;;34.40;47.80;;;;;;6185664;23;20059;-77
2022/07/19 12:10:54;;;;;;;13.23;1.30;;;34.50;47.70;;;;;;6159273;23;20439;-76
2022/07/19 12:13:51;;;;;;;4.80;1.30;;;34.50;47.80;;;;;;6157761;23;20105;-80
2022/07/19 12:16:18;;;;;;;8.68;1.52;;;34.70;46.00;;;;;;6129383;23;20099;-77
2022/07/19 12:18:47;;;;;;;8.07;1.42;;;34.90;47.70;;;;;;6159122;23;20013;-77
2022/07/19 12:21:41;;;;;;;7.85;1.70;;;34.90;47.00;;;;;;6185764;23;20035;-76
2022/07/19 12:24:14;;;;;;;4.85;1.50;;;34.70;47.00;;;;;;6159105;23;20027;-73
2022/07/19 12:26:43;;;;;;;4.60;1.40;;;34.40;46.40;;;;;;6158844;23;20013;-74
2022/07/19 12:29:26;;;;;;;5.75;1.35;;;34.60;46.40;;;;;;6134895;23;20021;-75
2022/07/19 12:32:06;;;;;;;8.48;1.58;;;34.60;46.40;;;;;;6134132;23;20017;-74
2022/07/19 12:34:43;;;;;;;3.78;1.30;;;34.30;45.50;;;;;;6134883;23;20017;-76
2022/07/19 12:37:23;;;;;;;10.38;1.63;;;34.40;46.40;;;;;;6159067;23;20444;-75
2022/07/19 12:40:15;;;;;;;8.57;1.42;;;34.50;46.40;;;;;;6159013;23;20095;-76
2022/07/19 12:42:59;;;;;;;5.72;1.45;;;34.50;47.70;;;;;;6158879;23;20023;-77
2022/07/19 12:45:50;;;;;;;3.65;1.42;;;34.60;45.60;;;;;;6158874;23;20015;-73
2022/07/19 12:48:19;;;;;;;9.63;1.52;;;34.50;46.00;;;;;;6133970;23;20009;-71
2022/07/19 12:50:49;;;;;;;6.25;1.50;;;34.60;45.60;;;;;;6098287;23;20017;-73
2022/07/19 12:53:18;;;;;;;4.00;1.33;;;34.70;46.10;;;;;;6098420;23;20024;-74
2022/07/19 12:55:48;;;;;;;5.47;1.50;;;34.80;46.00;;;;;;6053401;23;20020;-73
2022/07/19 13:01:17;;;;;;;4.40;1.27;;;34.90;44.80;;;;;;5984394;23;20068;-75
2022/07/19 13:03:43;;;;;;;4.38;1.40;;;34.90;44.80;;;;;;6074243;23;20346;-75
2022/07/19 13:06:11;;;;;;;7.75;1.55;;;35.10;44.30;;;;;;6074592;23;20020;-75
2022/07/19 13:08:37;;;;;;;2.70;1.23;;;35.10;46.10;;;;;;6074165;23;20014;-74
2022/07/19 13:11:41;;;;;;;5.72;1.60;;;35.20;44.30;;;;;;6074602;23;20464;-72
2022/07/19 13:14:20;;;;;;;8.73;1.45;;;35.40;43.60;;;;;;6071361;23;20096;-73
2022/07/19 13:16:48;;;;;;;5.53;1.40;;;35.50;45.10;;;;;;6129600;23;20060;-74
2022/07/19 13:19:50;;;;;;;4.50;1.13;;;35.70;43.90;;;;;;6154696;23;20317;-73
2022/07/19 13:22:16;;;;;;;7.15;1.25;;;35.60;42.80;;;;;;6011578;23;20016;-74
2022/07/19 13:24:41;;;;;;;4.13;1.20;;;35.50;43.00;;;;;;6105881;23;20009;-75
2022/07/19 13:27:41;;;;;;;7.35;1.40;;;35.40;43.80;;;;;;6130294;23;20017;-73
2022/07/19 13:30:28;;;;;;;4.63;1.50;;;35.40;45.50;;;;;;6127935;23;20329;-73
2022/07/19 13:32:54;;;;;;;8.43;1.60;;;35.60;45.00;;;;;;6130619;23;20048;-73
2022/07/19 13:38:47;;;;;;;8.23;1.30;;;35.70;44.30;;;;;;6094362;23;20009;-72
2022/07/19 13:41:16;;;;;;;5.07;1.58;;;35.80;42.10;;;;;;6104671;23;20237;-72
2022/07/19 13:43:46;;;;;;;6.22;1.30;;;35.80;42.30;;;;;;6104068;23;20013;-74
2022/07/19 13:46:47;;;;;;;7.30;1.15;;;35.70;43.30;;;;;;6128849;23;20017;-72
2022/07/19 13:49:42;;;;;;;3.90;1.23;;;35.70;41.90;;;;;;6104307;23;20025;-76
2022/07/19 14:15:03;;;;;;;4.88;1.05;;;35.70;43.30;;;;;;6007186;23;20068;-74
2022/07/19 14:17:52;;;;;;;7.70;1.20;;;35.80;43.20;;;;;;5960253;23;20452;-73
2022/07/19 14:20:55;;;;;;;7.25;1.17;;;35.70;42.50;;;;;;5959920;23;20011;-71
2022/07/19 15:19:07;;;;;;;7.88;1.17;;;37.30;39.10;;;;;;6066328;23;20009;-69
2022/07/19 15:21:53;;;;;;;5.28;1.00;;;37.10;40.20;;;;;;6066583;23;20015;-69
2022/07/19 15:29:06;;;;;;;;;;;;;;;;;;;;;
2022/07/19 15:39:23;;;;;;;3.85;0.90;;;37.80;37.70;;;;;;5888938;24;20029;-71
2022/07/19 15:42:53;;;;;;;5.70;1.00;;;37.60;38.30;;;;;;5981837;23;20054;-74
2022/07/19 15:48:28;;;;;;;4.22;1.10;;;37.40;37.10;;;;;;6050259;23;20094;-68
2022/07/19 15:50:57;;;;;;;10.68;0.98;;;37.40;39.70;;;;;;6095694;23;20485;-69
2022/07/19 16:37:35;;;;;;;4.18;1.00;;;38.10;36.10;;;;;;6067129;23;20022;-75
2022/07/19 16:40:37;;;;;;;5.80;1.00;;;38.60;36.10;;;;;;6043186;23;20074;-76
2022/07/19 16:43:59;;;;;;;3.72;0.88;;;38.10;36.40;;;;;;5980598;24;20157;-81
2022/07/19 16:51:20;;;;;;;13.70;1.35;;;37.80;37.00;;;;;;5980922;24;20462;-74
2022/07/19 16:57:48;;;;;;;5.67;1.33;;;36.40;40.00;;;;;;5924071;24;20525;-67
2022/07/19 17:28:09;;;;;;;9.57;1.38;;;34.10;43.40;;;;;;6138243;23;20056;-80
2022/07/19 18:09:05;;;;;;;7.75;1.50;;;32.70;49.00;;;;;;6155738;23;20018;-77
2022/07/19 18:12:03;;;;;;;10.82;2.00;;;32.60;48.60;;;;;;6129317;23;20068;-77
2022/07/19 18:14:30;;;;;;;9.80;1.70;;;32.40;47.40;;;;;;6016704;23;20034;-79
2022/07/19 18:16:56;;;;;;;7.70;1.65;;;32.30;47.90;;;;;;6044858;23;20011;-75
2022/07/19 18:19:48;;;;;;;8.73;1.88;;;32.40;47.70;;;;;;6129406;23;20020;-74
2022/07/19 18:22:34;;;;;;;8.52;1.75;;;32.30;47.30;;;;;;6103855;23;20064;-74
2022/07/19 18:25:03;;;;;;;6.93;1.70;;;32.30;49.10;;;;;;6104213;23;20022;-74
2022/07/19 18:27:32;;;;;;;4.55;1.45;;;32.10;48.30;;;;;;6128973;23;20017;-75
2022/07/19 18:30:19;;;;;;;10.85;2.10;;;32.10;48.40;;;;;;6043298;23;20015;-79
2022/07/19 18:32:53;;;;;;;3.90;1.63;;;31.90;48.70;;;;;;6017443;23;20014;-75
2022/07/19 18:38:23;;;;;;;;;;;;;;;;;;;;;